sensor_id;sensor_type;location;lat;lon;timestamp;P1;durP1;ratioP1;P2;durP2;ratioP2
46022;SDS011;31756;47.936;16.224;2022-09-28T00:00:14;0.60;;;0.60;;
46022;SDS011;31756;47.936;16.224;2022-09-28T00:02:40;0.50;;;0.50;;
46022;SDS011;31756;47.936;16.224;2022-09-28T00:05:05;0.60;;;0.60;;
46022;SDS011;31756;47.936;16.224;2022-09-28T00:07:30;0.50;;;0.50;;
46022;SDS011;31756;47.936;16.224;2022-09-28T00:09:56;0.50;;;0.50;;
46022;SDS011;31756;47.936;16.224;2022-09-28T00:12:21;0.50;;;0.50;;
46022;SDS011;31756;47.936;16.224;2022-09-28T00:14:46;0.80;;;0.60;;
46022;SDS011;31756;47.936;16.224;2022-09-28T00:17:12;0.60;;;0.60;;
46022;SDS011;31756;47.936;16.224;2022-09-28T00:19:38;2.03;;;0.70;;
46022;SDS011;31756;47.936;16.224;2022-09-28T00:22:04;0.63;;;0.63;;
46022;SDS011;31756;47.936;16.224;2022-09-28T00:24:29;0.57;;;0.57;;
46022;SDS011;31756;47.936;16.224;2022-09-28T00:26:56;0.70;;;0.70;;
46022;SDS011;31756;47.936;16.224;2022-09-28T00:29:33;0.87;;;0.77;;
46022;SDS011;31756;47.936;16.224;2022-09-28T00:32:03;1.10;;;0.53;;
46022;SDS011;31756;47.936;16.224;2022-09-28T00:34:30;0.60;;;0.60;;
46022;SDS011;31756;47.936;16.224;2022-09-28T00:36:56;0.67;;;0.67;;
46022;SDS011;31756;47.936;16.224;2022-09-28T00:39:21;0.80;;;0.80;;
46022;SDS011;31756;47.936;16.224;2022-09-28T00:41:46;1.73;;;0.90;;
46022;SDS011;31756;47.936;16.224;2022-09-28T00:46:46;0.50;;;0.50;;
46022;SDS011;31756;47.936;16.224;2022-09-28T00:49:13;1.43;;;0.70;;
46022;SDS011;31756;47.936;16.224;2022-09-28T00:51:39;0.73;;;0.70;;
46022;SDS011;31756;47.936;16.224;2022-09-28T00:54:06;1.53;;;0.67;;
46022;SDS011;31756;47.936;16.224;2022-09-28T00:56:33;0.70;;;0.70;;
46022;SDS011;31756;47.936;16.224;2022-09-28T00:58:59;1.40;;;0.60;;
46022;SDS011;31756;47.936;16.224;2022-09-28T01:01:26;1.00;;;0.60;;
46022;SDS011;31756;47.936;16.224;2022-09-28T01:03:51;1.20;;;0.50;;
46022;SDS011;31756;47.936;16.224;2022-09-28T01:06:19;0.83;;;0.60;;
46022;SDS011;31756;47.936;16.224;2022-09-28T01:08:44;0.43;;;0.43;;
46022;SDS011;31756;47.936;16.224;2022-09-28T01:11:10;0.57;;;0.57;;
46022;SDS011;31756;47.936;16.224;2022-09-28T01:13:36;1.80;;;0.80;;
46022;SDS011;31756;47.936;16.224;2022-09-28T01:23:42;0.70;;;0.70;;
46022;SDS011;31756;47.936;16.224;2022-09-28T01:26:24;1.57;;;0.63;;
46022;SDS011;31756;47.936;16.224;2022-09-28T01:29:01;1.90;;;1.03;;
46022;SDS011;31756;47.936;16.224;2022-09-28T01:31:29;2.03;;;0.90;;
46022;SDS011;31756;47.936;16.224;2022-09-28T01:34:10;1.00;;;1.00;;
46022;SDS011;31756;47.936;16.224;2022-09-28T01:36:42;1.00;;;0.90;;
46022;SDS011;31756;47.936;16.224;2022-09-28T01:39:08;3.17;;;0.80;;
46022;SDS011;31756;47.936;16.224;2022-09-28T01:41:34;1.73;;;1.17;;
46022;SDS011;31756;47.936;16.224;2022-09-28T01:44:02;2.07;;;1.03;;
46022;SDS011;31756;47.936;16.224;2022-09-28T01:46:38;1.37;;;1.20;;
46022;SDS011;31756;47.936;16.224;2022-09-28T01:54:08;2.03;;;1.10;;
46022;SDS011;31756;47.936;16.224;2022-09-28T01:56:37;2.58;;;1.23;;
46022;SDS011;31756;47.936;16.224;2022-09-28T01:59:23;1.23;;;1.13;;
46022;SDS011;31756;47.936;16.224;2022-09-28T02:01:54;2.83;;;1.50;;
46022;SDS011;31756;47.936;16.224;2022-09-28T02:04:22;1.53;;;1.00;;
46022;SDS011;31756;47.936;16.224;2022-09-28T02:06:53;3.00;;;1.33;;
46022;SDS011;31756;47.936;16.224;2022-09-28T02:09:23;1.87;;;1.63;;
46022;SDS011;31756;47.936;16.224;2022-09-28T02:11:53;2.17;;;1.13;;
46022;SDS011;31756;47.936;16.224;2022-09-28T02:14:20;2.40;;;1.73;;
46022;SDS011;31756;47.936;16.224;2022-09-28T02:16:46;1.53;;;1.43;;
46022;SDS011;31756;47.936;16.224;2022-09-28T02:19:16;1.67;;;1.47;;
46022;SDS011;31756;47.936;16.224;2022-09-28T02:24:18;1.43;;;1.20;;
46022;SDS011;31756;47.936;16.224;2022-09-28T02:26:46;1.57;;;1.40;;
46022;SDS011;31756;47.936;16.224;2022-09-28T02:29:12;2.60;;;1.40;;
46022;SDS011;31756;47.936;16.224;2022-09-28T02:31:37;3.90;;;1.60;;
46022;SDS011;31756;47.936;16.224;2022-09-28T02:34:03;1.43;;;1.00;;
46022;SDS011;31756;47.936;16.224;2022-09-28T02:36:28;1.43;;;1.27;;
46022;SDS011;31756;47.936;16.224;2022-09-28T02:38:53;1.13;;;1.03;;
46022;SDS011;31756;47.936;16.224;2022-09-28T02:46:32;1.40;;;1.30;;
46022;SDS011;31756;47.936;16.224;2022-09-28T02:49:13;3.97;;;1.00;;
46022;SDS011;31756;47.936;16.224;2022-09-28T02:56:55;1.23;;;1.03;;
46022;SDS011;31756;47.936;16.224;2022-09-28T03:01:56;1.90;;;1.00;;
46022;SDS011;31756;47.936;16.224;2022-09-28T03:10:57;1.57;;;1.47;;
46022;SDS011;31756;47.936;16.224;2022-09-28T03:12:55;2.60;;;1.55;;
46022;SDS011;31756;47.936;16.224;2022-09-28T03:15:25;3.63;;;1.53;;
46022;SDS011;31756;47.936;16.224;2022-09-28T03:17:51;1.73;;;1.43;;
46022;SDS011;31756;47.936;16.224;2022-09-28T03:20:16;3.50;;;1.70;;
46022;SDS011;31756;47.936;16.224;2022-09-28T03:22:42;2.80;;;1.80;;
46022;SDS011;31756;47.936;16.224;2022-09-28T03:25:07;3.93;;;1.90;;
46022;SDS011;31756;47.936;16.224;2022-09-28T03:27:34;3.80;;;1.73;;
46022;SDS011;31756;47.936;16.224;2022-09-28T03:29:59;2.13;;;1.90;;
46022;SDS011;31756;47.936;16.224;2022-09-28T03:32:24;3.13;;;1.70;;
46022;SDS011;31756;47.936;16.224;2022-09-28T03:34:50;3.17;;;1.60;;
46022;SDS011;31756;47.936;16.224;2022-09-28T03:37:15;1.53;;;1.37;;
46022;SDS011;31756;47.936;16.224;2022-09-28T03:39:40;2.03;;;1.60;;
46022;SDS011;31756;47.936;16.224;2022-09-28T03:42:05;1.60;;;1.50;;
46022;SDS011;31756;47.936;16.224;2022-09-28T03:44:31;2.20;;;1.20;;
46022;SDS011;31756;47.936;16.224;2022-09-28T03:46:56;1.60;;;1.50;;
46022;SDS011;31756;47.936;16.224;2022-09-28T03:49:21;3.03;;;1.70;;
46022;SDS011;31756;47.936;16.224;2022-09-28T03:51:46;1.83;;;1.50;;
46022;SDS011;31756;47.936;16.224;2022-09-28T03:54:12;1.60;;;1.50;;
46022;SDS011;31756;47.936;16.224;2022-09-28T03:56:37;2.07;;;1.97;;
46022;SDS011;31756;47.936;16.224;2022-09-28T03:59:03;2.30;;;1.77;;
46022;SDS011;31756;47.936;16.224;2022-09-28T04:01:28;3.27;;;2.10;;
46022;SDS011;31756;47.936;16.224;2022-09-28T04:03:53;1.57;;;1.33;;
46022;SDS011;31756;47.936;16.224;2022-09-28T04:06:22;2.67;;;1.83;;
46022;SDS011;31756;47.936;16.224;2022-09-28T04:08:47;2.10;;;1.47;;
46022;SDS011;31756;47.936;16.224;2022-09-28T04:11:13;1.50;;;1.20;;
46022;SDS011;31756;47.936;16.224;2022-09-28T04:13:38;1.30;;;1.20;;
46022;SDS011;31756;47.936;16.224;2022-09-28T04:16:03;2.30;;;1.80;;
46022;SDS011;31756;47.936;16.224;2022-09-28T04:18:32;3.07;;;1.60;;
46022;SDS011;31756;47.936;16.224;2022-09-28T04:21:01;2.53;;;2.03;;
46022;SDS011;31756;47.936;16.224;2022-09-28T04:23:33;2.63;;;1.77;;
46022;SDS011;31756;47.936;16.224;2022-09-28T04:25:58;3.67;;;2.17;;
46022;SDS011;31756;47.936;16.224;2022-09-28T04:28:24;3.13;;;2.17;;
46022;SDS011;31756;47.936;16.224;2022-09-28T04:31:09;2.60;;;1.30;;
46022;SDS011;31756;47.936;16.224;2022-09-28T04:33:35;4.17;;;1.90;;
46022;SDS011;31756;47.936;16.224;2022-09-28T04:36:01;3.47;;;1.53;;
46022;SDS011;31756;47.936;16.224;2022-09-28T04:38:26;2.67;;;1.80;;
46022;SDS011;31756;47.936;16.224;2022-09-28T04:40:51;2.67;;;2.13;;
46022;SDS011;31756;47.936;16.224;2022-09-28T04:43:17;2.97;;;1.50;;
46022;SDS011;31756;47.936;16.224;2022-09-28T04:45:42;1.60;;;1.50;;
46022;SDS011;31756;47.936;16.224;2022-09-28T04:48:07;1.83;;;1.67;;
46022;SDS011;31756;47.936;16.224;2022-09-28T04:50:32;2.90;;;1.43;;
46022;SDS011;31756;47.936;16.224;2022-09-28T04:52:59;6.37;;;1.93;;
46022;SDS011;31756;47.936;16.224;2022-09-28T04:55:24;4.23;;;2.20;;
46022;SDS011;31756;47.936;16.224;2022-09-28T04:57:52;3.70;;;1.73;;
46022;SDS011;31756;47.936;16.224;2022-09-28T05:00:18;1.93;;;1.73;;
46022;SDS011;31756;47.936;16.224;2022-09-28T05:02:43;2.40;;;2.20;;
46022;SDS011;31756;47.936;16.224;2022-09-28T05:05:09;3.17;;;2.00;;
46022;SDS011;31756;47.936;16.224;2022-09-28T05:07:34;2.50;;;1.80;;
46022;SDS011;31756;47.936;16.224;2022-09-28T05:09:59;2.37;;;1.80;;
46022;SDS011;31756;47.936;16.224;2022-09-28T05:12:25;1.80;;;1.17;;
46022;SDS011;31756;47.936;16.224;2022-09-28T05:14:50;2.00;;;1.63;;
46022;SDS011;31756;47.936;16.224;2022-09-28T05:17:16;3.60;;;1.70;;
46022;SDS011;31756;47.936;16.224;2022-09-28T05:19:41;3.27;;;2.07;;
46022;SDS011;31756;47.936;16.224;2022-09-28T05:22:07;3.57;;;1.60;;
46022;SDS011;31756;47.936;16.224;2022-09-28T05:24:35;2.67;;;1.80;;
46022;SDS011;31756;47.936;16.224;2022-09-28T05:27:00;2.03;;;1.47;;
46022;SDS011;31756;47.936;16.224;2022-09-28T05:29:25;4.57;;;1.63;;
46022;SDS011;31756;47.936;16.224;2022-09-28T05:31:51;2.67;;;1.50;;
46022;SDS011;31756;47.936;16.224;2022-09-28T05:34:16;2.20;;;2.10;;
46022;SDS011;31756;47.936;16.224;2022-09-28T05:36:41;2.27;;;1.60;;
46022;SDS011;31756;47.936;16.224;2022-09-28T05:39:07;2.33;;;1.77;;
46022;SDS011;31756;47.936;16.224;2022-09-28T05:41:32;4.13;;;2.23;;
46022;SDS011;31756;47.936;16.224;2022-09-28T05:43:57;2.87;;;2.53;;
46022;SDS011;31756;47.936;16.224;2022-09-28T05:46:23;3.20;;;1.67;;
46022;SDS011;31756;47.936;16.224;2022-09-28T05:48:48;8.30;;;2.13;;
46022;SDS011;31756;47.936;16.224;2022-09-28T05:51:15;4.77;;;1.77;;
46022;SDS011;31756;47.936;16.224;2022-09-28T05:53:40;2.50;;;1.90;;
46022;SDS011;31756;47.936;16.224;2022-09-28T05:56:05;2.97;;;1.90;;
46022;SDS011;31756;47.936;16.224;2022-09-28T05:58:31;6.33;;;2.63;;
46022;SDS011;31756;47.936;16.224;2022-09-28T06:00:56;8.87;;;4.37;;
46022;SDS011;31756;47.936;16.224;2022-09-28T06:03:22;10.70;;;5.00;;
46022;SDS011;31756;47.936;16.224;2022-09-28T06:05:47;9.53;;;4.57;;
46022;SDS011;31756;47.936;16.224;2022-09-28T06:08:12;10.03;;;5.30;;
46022;SDS011;31756;47.936;16.224;2022-09-28T06:10:38;7.50;;;3.20;;
46022;SDS011;31756;47.936;16.224;2022-09-28T06:13:03;5.73;;;3.20;;
46022;SDS011;31756;47.936;16.224;2022-09-28T06:15:30;4.10;;;2.50;;
46022;SDS011;31756;47.936;16.224;2022-09-28T06:17:59;3.80;;;2.90;;
46022;SDS011;31756;47.936;16.224;2022-09-28T06:20:25;2.47;;;2.23;;
46022;SDS011;31756;47.936;16.224;2022-09-28T06:22:52;9.20;;;2.50;;
46022;SDS011;31756;47.936;16.224;2022-09-28T06:25:17;6.10;;;2.90;;
46022;SDS011;31756;47.936;16.224;2022-09-28T06:27:42;4.93;;;2.60;;
46022;SDS011;31756;47.936;16.224;2022-09-28T06:30:08;7.70;;;2.70;;
46022;SDS011;31756;47.936;16.224;2022-09-28T06:32:33;3.83;;;2.20;;
46022;SDS011;31756;47.936;16.224;2022-09-28T06:34:58;6.43;;;3.00;;
46022;SDS011;31756;47.936;16.224;2022-09-28T06:37:23;3.47;;;3.08;;
46022;SDS011;31756;47.936;16.224;2022-09-28T06:39:50;3.88;;;2.90;;
46022;SDS011;31756;47.936;16.224;2022-09-28T06:42:15;4.72;;;3.10;;
46022;SDS011;31756;47.936;16.224;2022-09-28T06:44:42;3.33;;;2.70;;
46022;SDS011;31756;47.936;16.224;2022-09-28T06:47:08;4.30;;;2.55;;
46022;SDS011;31756;47.936;16.224;2022-09-28T06:49:33;2.67;;;1.40;;
46022;SDS011;31756;47.936;16.224;2022-09-28T06:51:58;2.53;;;1.63;;
46022;SDS011;31756;47.936;16.224;2022-09-28T06:54:24;3.38;;;2.00;;
46022;SDS011;31756;47.936;16.224;2022-09-28T06:56:51;1.92;;;1.70;;
46022;SDS011;31756;47.936;16.224;2022-09-28T06:59:16;7.25;;;1.88;;
46022;SDS011;31756;47.936;16.224;2022-09-28T07:01:41;3.95;;;1.60;;
46022;SDS011;31756;47.936;16.224;2022-09-28T07:04:06;1.70;;;1.58;;
46022;SDS011;31756;47.936;16.224;2022-09-28T07:06:31;2.85;;;1.48;;
46022;SDS011;31756;47.936;16.224;2022-09-28T07:08:57;1.52;;;1.42;;
46022;SDS011;31756;47.936;16.224;2022-09-28T07:11:26;2.20;;;2.05;;
46022;SDS011;31756;47.936;16.224;2022-09-28T07:13:53;2.53;;;1.63;;
46022;SDS011;31756;47.936;16.224;2022-09-28T07:16:18;1.70;;;1.60;;
46022;SDS011;31756;47.936;16.224;2022-09-28T07:18:43;1.85;;;1.73;;
46022;SDS011;31756;47.936;16.224;2022-09-28T07:21:08;2.83;;;1.88;;
46022;SDS011;31756;47.936;16.224;2022-09-28T07:23:34;3.25;;;1.80;;
46022;SDS011;31756;47.936;16.224;2022-09-28T07:26:01;4.18;;;1.95;;
46022;SDS011;31756;47.936;16.224;2022-09-28T07:28:27;4.00;;;1.80;;
46022;SDS011;31756;47.936;16.224;2022-09-28T07:30:55;2.47;;;2.03;;
46022;SDS011;31756;47.936;16.224;2022-09-28T07:33:20;3.65;;;1.95;;
46022;SDS011;31756;47.936;16.224;2022-09-28T07:35:49;2.30;;;2.00;;
46022;SDS011;31756;47.936;16.224;2022-09-28T07:38:15;2.13;;;1.70;;
46022;SDS011;31756;47.936;16.224;2022-09-28T07:40:40;2.03;;;1.83;;
46022;SDS011;31756;47.936;16.224;2022-09-28T07:43:24;2.20;;;1.80;;
46022;SDS011;31756;47.936;16.224;2022-09-28T07:45:50;3.70;;;1.88;;
46022;SDS011;31756;47.936;16.224;2022-09-28T07:48:19;4.70;;;2.00;;
46022;SDS011;31756;47.936;16.224;2022-09-28T07:50:47;2.95;;;1.77;;
46022;SDS011;31756;47.936;16.224;2022-09-28T07:53:16;2.22;;;2.13;;
46022;SDS011;31756;47.936;16.224;2022-09-28T07:55:41;1.95;;;1.70;;
46022;SDS011;31756;47.936;16.224;2022-09-28T07:58:06;1.90;;;1.30;;
46022;SDS011;31756;47.936;16.224;2022-09-28T08:00:31;1.38;;;1.23;;
46022;SDS011;31756;47.936;16.224;2022-09-28T08:03:00;2.83;;;1.65;;
46022;SDS011;31756;47.936;16.224;2022-09-28T08:05:26;2.47;;;2.08;;
46022;SDS011;31756;47.936;16.224;2022-09-28T08:07:55;3.42;;;1.77;;
46022;SDS011;31756;47.936;16.224;2022-09-28T08:10:22;1.83;;;1.70;;
46022;SDS011;31756;47.936;16.224;2022-09-28T08:12:47;1.88;;;1.77;;
46022;SDS011;31756;47.936;16.224;2022-09-28T08:15:18;2.20;;;1.60;;
46022;SDS011;31756;47.936;16.224;2022-09-28T08:17:45;1.90;;;1.80;;
46022;SDS011;31756;47.936;16.224;2022-09-28T08:20:11;3.88;;;2.13;;
46022;SDS011;31756;47.936;16.224;2022-09-28T08:22:55;1.80;;;1.70;;
46022;SDS011;31756;47.936;16.224;2022-09-28T08:25:26;2.15;;;2.05;;
46022;SDS011;31756;47.936;16.224;2022-09-28T08:27:51;2.42;;;1.65;;
46022;SDS011;31756;47.936;16.224;2022-09-28T08:30:16;2.78;;;1.70;;
46022;SDS011;31756;47.936;16.224;2022-09-28T08:32:45;2.55;;;2.30;;
46022;SDS011;31756;47.936;16.224;2022-09-28T08:35:10;2.35;;;1.88;;
46022;SDS011;31756;47.936;16.224;2022-09-28T08:37:36;3.78;;;2.28;;
46022;SDS011;31756;47.936;16.224;2022-09-28T08:40:01;1.80;;;1.52;;
46022;SDS011;31756;47.936;16.224;2022-09-28T08:42:31;2.13;;;1.85;;
46022;SDS011;31756;47.936;16.224;2022-09-28T08:44:58;2.00;;;1.90;;
46022;SDS011;31756;47.936;16.224;2022-09-28T08:47:31;2.10;;;2.00;;
46022;SDS011;31756;47.936;16.224;2022-09-28T08:50:20;1.95;;;1.85;;
46022;SDS011;31756;47.936;16.224;2022-09-28T08:52:49;1.90;;;1.80;;
46022;SDS011;31756;47.936;16.224;2022-09-28T08:57:44;1.70;;;1.60;;
46022;SDS011;31756;47.936;16.224;2022-09-28T09:00:15;1.88;;;1.77;;
46022;SDS011;31756;47.936;16.224;2022-09-28T09:02:42;2.28;;;2.08;;
46022;SDS011;31756;47.936;16.224;2022-09-28T09:05:10;2.00;;;1.90;;
46022;SDS011;31756;47.936;16.224;2022-09-28T09:20:40;1.50;;;1.40;;
46022;SDS011;31756;47.936;16.224;2022-09-28T09:23:12;1.77;;;1.30;;
46022;SDS011;31756;47.936;16.224;2022-09-28T09:25:41;1.88;;;1.42;;
46022;SDS011;31756;47.936;16.224;2022-09-28T09:36:32;1.30;;;1.30;;
46022;SDS011;31756;47.936;16.224;2022-09-28T09:41:34;1.15;;;1.05;;
46022;SDS011;31756;47.936;16.224;2022-09-28T09:44:04;2.35;;;1.30;;
46022;SDS011;31756;47.936;16.224;2022-09-28T09:49:28;0.90;;;0.90;;
46022;SDS011;31756;47.936;16.224;2022-09-28T09:59:28;1.02;;;0.90;;
46022;SDS011;31756;47.936;16.224;2022-09-28T10:01:57;1.00;;;1.00;;
46022;SDS011;31756;47.936;16.224;2022-09-28T10:04:26;1.55;;;1.45;;
46022;SDS011;31756;47.936;16.224;2022-09-28T10:06:55;3.80;;;1.92;;
46022;SDS011;31756;47.936;16.224;2022-09-28T10:11:46;0.88;;;0.88;;
46022;SDS011;31756;47.936;16.224;2022-09-28T10:14:21;4.82;;;1.70;;
46022;SDS011;31756;47.936;16.224;2022-09-28T10:16:47;1.40;;;1.30;;
46022;SDS011;31756;47.936;16.224;2022-09-28T10:19:14;1.30;;;1.30;;
46022;SDS011;31756;47.936;16.224;2022-09-28T10:21:40;1.70;;;1.60;;
46022;SDS011;31756;47.936;16.224;2022-09-28T10:24:16;1.67;;;1.33;;
46022;SDS011;31756;47.936;16.224;2022-09-28T10:26:44;1.23;;;1.20;;
46022;SDS011;31756;47.936;16.224;2022-09-28T10:29:20;0.95;;;0.95;;
46022;SDS011;31756;47.936;16.224;2022-09-28T10:31:47;1.17;;;1.17;;
46022;SDS011;31756;47.936;16.224;2022-09-28T10:34:13;1.40;;;1.05;;
46022;SDS011;31756;47.936;16.224;2022-09-28T10:41:57;1.00;;;1.00;;
46022;SDS011;31756;47.936;16.224;2022-09-28T10:44:23;1.48;;;1.00;;
46022;SDS011;31756;47.936;16.224;2022-09-28T10:46:57;1.30;;;1.20;;
46022;SDS011;31756;47.936;16.224;2022-09-28T10:49:23;0.90;;;0.90;;
46022;SDS011;31756;47.936;16.224;2022-09-28T10:51:50;1.48;;;1.10;;
46022;SDS011;31756;47.936;16.224;2022-09-28T10:54:25;1.52;;;1.42;;
46022;SDS011;31756;47.936;16.224;2022-09-28T10:56:52;1.20;;;1.20;;
46022;SDS011;31756;47.936;16.224;2022-09-28T11:01:52;1.50;;;1.23;;
46022;SDS011;31756;47.936;16.224;2022-09-28T11:04:19;1.10;;;1.10;;
46022;SDS011;31756;47.936;16.224;2022-09-28T11:06:46;4.07;;;1.15;;
46022;SDS011;31756;47.936;16.224;2022-09-28T11:11:49;1.38;;;1.27;;
46022;SDS011;31756;47.936;16.224;2022-09-28T11:14:23;1.00;;;1.00;;
46022;SDS011;31756;47.936;16.224;2022-09-28T11:17:11;1.42;;;1.23;;
46022;SDS011;31756;47.936;16.224;2022-09-28T11:19:35;7.95;;;1.45;;
46022;SDS011;31756;47.936;16.224;2022-09-28T11:22:00;4.93;;;1.33;;
46022;SDS011;31756;47.936;16.224;2022-09-28T11:24:26;1.75;;;1.30;;
46022;SDS011;31756;47.936;16.224;2022-09-28T11:26:53;1.33;;;1.10;;
46022;SDS011;31756;47.936;16.224;2022-09-28T11:32:05;1.20;;;1.00;;
46022;SDS011;31756;47.936;16.224;2022-09-28T11:34:35;1.02;;;1.02;;
46022;SDS011;31756;47.936;16.224;2022-09-28T11:41:56;2.13;;;1.25;;
46022;SDS011;31756;47.936;16.224;2022-09-28T11:44:38;1.40;;;1.37;;
46022;SDS011;31756;47.936;16.224;2022-09-28T11:47:24;2.53;;;1.20;;
46022;SDS011;31756;47.936;16.224;2022-09-28T11:49:58;1.17;;;1.10;;
46022;SDS011;31756;47.936;16.224;2022-09-28T11:54:55;2.17;;;2.08;;
46022;SDS011;31756;47.936;16.224;2022-09-28T11:57:23;1.65;;;1.55;;
46022;SDS011;31756;47.936;16.224;2022-09-28T11:59:52;1.20;;;1.20;;
46022;SDS011;31756;47.936;16.224;2022-09-28T12:04:55;1.67;;;1.58;;
46022;SDS011;31756;47.936;16.224;2022-09-28T12:07:29;1.98;;;1.50;;
46022;SDS011;31756;47.936;16.224;2022-09-28T12:12:33;2.88;;;1.67;;
46022;SDS011;31756;47.936;16.224;2022-09-28T12:15:02;1.27;;;1.27;;
46022;SDS011;31756;47.936;16.224;2022-09-28T12:17:31;1.30;;;1.30;;
46022;SDS011;31756;47.936;16.224;2022-09-28T12:20:00;1.45;;;1.38;;
46022;SDS011;31756;47.936;16.224;2022-09-28T12:22:31;3.35;;;1.63;;
46022;SDS011;31756;47.936;16.224;2022-09-28T12:24:57;1.77;;;1.40;;
46022;SDS011;31756;47.936;16.224;2022-09-28T12:32:28;1.75;;;1.10;;
46022;SDS011;31756;47.936;16.224;2022-09-28T12:34:55;1.50;;;1.40;;
46022;SDS011;31756;47.936;16.224;2022-09-28T12:47:23;4.10;;;2.08;;
46022;SDS011;31756;47.936;16.224;2022-09-28T12:49:59;2.33;;;1.70;;
46022;SDS011;31756;47.936;16.224;2022-09-28T12:52:39;2.15;;;1.40;;
46022;SDS011;31756;47.936;16.224;2022-09-28T12:55:23;1.25;;;1.25;;
46022;SDS011;31756;47.936;16.224;2022-09-28T13:00:22;1.40;;;1.30;;
46022;SDS011;31756;47.936;16.224;2022-09-28T13:05:23;1.67;;;1.58;;
46022;SDS011;31756;47.936;16.224;2022-09-28T13:10:31;1.30;;;1.20;;
46022;SDS011;31756;47.936;16.224;2022-09-28T13:15:42;1.40;;;1.30;;
46022;SDS011;31756;47.936;16.224;2022-09-28T13:25:55;1.50;;;1.40;;
46022;SDS011;31756;47.936;16.224;2022-09-28T13:28:22;1.50;;;1.40;;
46022;SDS011;31756;47.936;16.224;2022-09-28T13:30:49;3.20;;;1.75;;
46022;SDS011;31756;47.936;16.224;2022-09-28T13:33:20;1.25;;;1.15;;
46022;SDS011;31756;47.936;16.224;2022-09-28T13:35:47;1.27;;;1.17;;
46022;SDS011;31756;47.936;16.224;2022-09-28T13:43:27;1.42;;;1.42;;
46022;SDS011;31756;47.936;16.224;2022-09-28T13:45:55;10.65;;;3.15;;
46022;SDS011;31756;47.936;16.224;2022-09-28T13:48:25;7.50;;;6.90;;
46022;SDS011;31756;47.936;16.224;2022-09-28T13:53:54;1.48;;;1.33;;
46022;SDS011;31756;47.936;16.224;2022-09-28T13:56:29;1.00;;;1.00;;
46022;SDS011;31756;47.936;16.224;2022-09-28T14:01:51;3.67;;;2.30;;
46022;SDS011;31756;47.936;16.224;2022-09-28T14:04:23;2.38;;;2.22;;
46022;SDS011;31756;47.936;16.224;2022-09-28T14:06:55;1.55;;;1.20;;
46022;SDS011;31756;47.936;16.224;2022-09-28T14:12:02;1.30;;;1.25;;
46022;SDS011;31756;47.936;16.224;2022-09-28T14:20:01;1.23;;;1.15;;
46022;SDS011;31756;47.936;16.224;2022-09-28T14:25:08;2.13;;;2.03;;
46022;SDS011;31756;47.936;16.224;2022-09-28T14:30:40;1.10;;;1.10;;
46022;SDS011;31756;47.936;16.224;2022-09-28T14:33:16;2.28;;;1.38;;
46022;SDS011;31756;47.936;16.224;2022-09-28T14:35:48;4.05;;;1.33;;
46022;SDS011;31756;47.936;16.224;2022-09-28T14:38:14;1.48;;;1.00;;
46022;SDS011;31756;47.936;16.224;2022-09-28T14:43:35;0.80;;;0.80;;
46022;SDS011;31756;47.936;16.224;2022-09-28T14:48:47;1.73;;;1.08;;
46022;SDS011;31756;47.936;16.224;2022-09-28T14:53:53;2.25;;;0.90;;
46022;SDS011;31756;47.936;16.224;2022-09-28T14:56:20;1.20;;;1.10;;
46022;SDS011;31756;47.936;16.224;2022-09-28T14:58:50;1.45;;;1.35;;
46022;SDS011;31756;47.936;16.224;2022-09-28T15:01:18;1.25;;;1.15;;
46022;SDS011;31756;47.936;16.224;2022-09-28T15:03:50;1.23;;;1.13;;
46022;SDS011;31756;47.936;16.224;2022-09-28T15:06:16;2.75;;;1.20;;
46022;SDS011;31756;47.936;16.224;2022-09-28T15:08:43;2.75;;;1.30;;
46022;SDS011;31756;47.936;16.224;2022-09-28T15:11:17;1.88;;;1.40;;
46022;SDS011;31756;47.936;16.224;2022-09-28T15:13:43;2.72;;;1.13;;
46022;SDS011;31756;47.936;16.224;2022-09-28T15:16:11;0.90;;;0.90;;
46022;SDS011;31756;47.936;16.224;2022-09-28T15:18:50;0.90;;;0.90;;
46022;SDS011;31756;47.936;16.224;2022-09-28T15:21:20;1.50;;;1.40;;
46022;SDS011;31756;47.936;16.224;2022-09-28T15:23:46;1.10;;;1.10;;
46022;SDS011;31756;47.936;16.224;2022-09-28T15:26:46;4.72;;;1.10;;
46022;SDS011;31756;47.936;16.224;2022-09-28T15:29:13;1.50;;;1.20;;
46022;SDS011;31756;47.936;16.224;2022-09-28T15:31:40;2.60;;;1.52;;
46022;SDS011;31756;47.936;16.224;2022-09-28T15:34:10;1.63;;;1.52;;
46022;SDS011;31756;47.936;16.224;2022-09-28T15:36:54;3.65;;;1.33;;
46022;SDS011;31756;47.936;16.224;2022-09-28T15:39:28;2.10;;;1.38;;
46022;SDS011;31756;47.936;16.224;2022-09-28T15:46:47;1.67;;;1.60;;
46022;SDS011;31756;47.936;16.224;2022-09-28T15:49:33;1.50;;;1.40;;
46022;SDS011;31756;47.936;16.224;2022-09-28T15:51:59;3.63;;;1.77;;
46022;SDS011;31756;47.936;16.224;2022-09-28T15:54:30;1.83;;;1.73;;
46022;SDS011;31756;47.936;16.224;2022-09-28T15:57:00;1.38;;;1.20;;
46022;SDS011;31756;47.936;16.224;2022-09-28T16:07:04;1.13;;;1.02;;
46022;SDS011;31756;47.936;16.224;2022-09-28T16:09:32;1.63;;;1.30;;
46022;SDS011;31756;47.936;16.224;2022-09-28T16:11:58;1.90;;;1.50;;
46022;SDS011;31756;47.936;16.224;2022-09-28T16:14:33;1.63;;;1.48;;
46022;SDS011;31756;47.936;16.224;2022-09-28T16:16:58;1.73;;;1.63;;
46022;SDS011;31756;47.936;16.224;2022-09-28T16:19:30;3.35;;;2.40;;
46022;SDS011;31756;47.936;16.224;2022-09-28T16:22:01;3.38;;;2.17;;
46022;SDS011;31756;47.936;16.224;2022-09-28T16:24:31;2.97;;;2.78;;
46022;SDS011;31756;47.936;16.224;2022-09-28T16:29:35;3.33;;;2.47;;
46022;SDS011;31756;47.936;16.224;2022-09-28T16:34:49;5.65;;;5.05;;
46022;SDS011;31756;47.936;16.224;2022-09-28T16:37:25;7.30;;;6.60;;
46022;SDS011;31756;47.936;16.224;2022-09-28T16:39:55;4.45;;;3.72;;
46022;SDS011;31756;47.936;16.224;2022-09-28T16:42:20;4.25;;;3.95;;
46022;SDS011;31756;47.936;16.224;2022-09-28T16:44:46;3.30;;;3.10;;
46022;SDS011;31756;47.936;16.224;2022-09-28T16:47:11;3.20;;;2.03;;
46022;SDS011;31756;47.936;16.224;2022-09-28T16:49:39;3.55;;;2.55;;
46022;SDS011;31756;47.936;16.224;2022-09-28T16:52:07;2.30;;;1.85;;
46022;SDS011;31756;47.936;16.224;2022-09-28T16:54:33;1.35;;;1.27;;
46022;SDS011;31756;47.936;16.224;2022-09-28T16:57:37;2.58;;;1.60;;
46022;SDS011;31756;47.936;16.224;2022-09-28T17:00:03;2.45;;;1.63;;
46022;SDS011;31756;47.936;16.224;2022-09-28T17:02:29;2.15;;;2.03;;
46022;SDS011;31756;47.936;16.224;2022-09-28T17:04:56;2.08;;;1.77;;
46022;SDS011;31756;47.936;16.224;2022-09-28T17:07:22;1.50;;;1.40;;
46022;SDS011;31756;47.936;16.224;2022-09-28T17:09:47;1.67;;;1.58;;
46022;SDS011;31756;47.936;16.224;2022-09-28T17:12:17;2.35;;;1.50;;
46022;SDS011;31756;47.936;16.224;2022-09-28T17:14:43;1.70;;;1.60;;
46022;SDS011;31756;47.936;16.224;2022-09-28T17:17:09;1.67;;;1.58;;
46022;SDS011;31756;47.936;16.224;2022-09-28T17:19:34;1.23;;;1.13;;
46022;SDS011;31756;47.936;16.224;2022-09-28T17:22:00;1.30;;;1.30;;
46022;SDS011;31756;47.936;16.224;2022-09-28T17:24:25;1.70;;;1.60;;
46022;SDS011;31756;47.936;16.224;2022-09-28T17:26:50;1.60;;;1.50;;
46022;SDS011;31756;47.936;16.224;2022-09-28T17:29:16;1.80;;;1.70;;
46022;SDS011;31756;47.936;16.224;2022-09-28T17:31:42;2.17;;;2.08;;
46022;SDS011;31756;47.936;16.224;2022-09-28T17:34:09;2.10;;;1.92;;
46022;SDS011;31756;47.936;16.224;2022-09-28T17:36:34;6.10;;;4.00;;
46022;SDS011;31756;47.936;16.224;2022-09-28T17:39:00;17.90;;;16.10;;
46022;SDS011;31756;47.936;16.224;2022-09-28T17:41:25;11.05;;;9.88;;
46022;SDS011;31756;47.936;16.224;2022-09-28T17:43:50;5.05;;;4.32;;